San Francisco (SFO/KSFO)

Information

Location
San Francisco, CA
Local Time
15:35 / 3:35 pm
GMT Time
22:35 / 10:35 pm
Gates
  • Experiencing general departure delays between 16 minutes to 30 minutes in length and Increasing due to VOL:Compacted Demand
METAR KSFO 242156Z 19012KT 10SM FEW050 23/12 A2983 RMK AO2 SLP101 T02280117
TAF KSFO 242100Z 2421/2524 18012KT P6SM SKC FM242200 VRB04KT P6SM SKC FM242300 26015G19KT P6SM SKC FM250500 25015KT P6SM FEW012 FM250900 25004KT P6SM OVC010 FM251800 29008KT P6SM FEW012